Time;durP1;ratioP1;P1;durP2;ratioP2;P2;SDS_P1;SDS_P2;PMS_P1;PMS_P2;Temp;Humidity;BMP_temperature;BMP_pressure;BME280_temperature;BME280_humidity;BME280_pressure;Samples;Min_cycle;Max_cycle;Signal;HPM_P1;HPM_P2
2022/09/20 00:00:41;;;;;;;11.57;4.15;;;;;;;13.67;78.89;102178.53;5014030;28;20397;-88
2022/09/20 00:03:07;;;;;;;9.73;4.05;;;;;;;13.68;78.61;102177.66;5014193;28;20034;-88
2022/09/20 00:05:38;;;;;;;8.82;4.10;;;;;;;13.64;78.37;102171.38;5015084;28;20056;-87
2022/09/20 00:08:05;;;;;;;8.85;4.68;;;;;;;13.62;78.85;102173.13;4996650;28;20022;-87
2022/09/20 00:10:34;;;;;;;11.30;4.03;;;;;;;13.54;79.13;102174.75;4996355;28;20038;-88
2022/09/20 00:13:04;;;;;;;10.27;4.38;;;;;;;13.36;79.52;102151.38;4996543;28;20390;-88
2022/09/20 00:15:33;;;;;;;11.40;4.07;;;;;;;13.40;79.84;102165.59;5013260;28;20474;-88
2022/09/20 00:17:59;;;;;;;9.80;4.25;;;;;;;13.34;79.99;102160.16;5013706;28;20065;-87
2022/09/20 00:20:24;;;;;;;11.07;4.80;;;;;;;13.39;79.83;102169.09;5014264;28;20106;-87
2022/09/20 00:22:50;;;;;;;11.48;4.57;;;;;;;13.33;80.02;102169.00;5013999;28;20033;-87
2022/09/20 00:25:17;;;;;;;8.82;4.22;;;;;;;13.29;80.06;102154.75;4996013;28;20473;-87
2022/09/20 00:27:44;;;;;;;6.93;4.22;;;;;;;13.28;80.27;102160.94;4995946;28;20037;-87
2022/09/20 00:30:10;;;;;;;10.63;4.50;;;;;;;13.27;80.45;102164.44;5014192;28;20112;-87
2022/09/20 00:32:35;;;;;;;12.00;4.38;;;;;;;13.25;80.48;102160.88;4996323;28;20084;-88
2022/09/20 00:35:06;;;;;;;11.63;4.68;;;;;;;13.26;80.78;102165.31;4996088;28;20034;-88
2022/09/20 00:37:40;;;;;;;13.13;4.60;;;;;;;13.25;80.38;102155.56;4997308;28;20104;-89
2022/09/20 00:40:11;;;;;;;8.32;4.20;;;;;;;13.31;80.60;102153.00;5013978;28;20471;-87
2022/09/20 00:42:40;;;;;;;10.20;4.22;;;;;;;13.35;80.05;102169.91;5013645;28;20140;-88
2022/09/20 00:45:07;;;;;;;12.05;4.18;;;;;;;13.40;80.09;102176.19;4996454;28;20041;-88
2022/09/20 00:47:40;;;;;;;10.77;5.25;;;;;;;13.33;80.43;102176.97;5013625;28;20109;-87
2022/09/20 00:50:13;;;;;;;10.65;4.57;;;;;;;13.38;80.26;102176.19;5014000;28;20060;-88
2022/09/20 00:52:44;;;;;;;10.25;4.47;;;;;;;13.38;80.05;102173.53;5014036;28;20026;-87
2022/09/20 00:55:13;;;;;;;7.22;4.07;;;;;;;13.37;79.92;102169.09;5013590;28;20080;-87
2022/09/20 00:57:42;;;;;;;9.60;4.28;;;;;;;13.35;79.68;102175.22;5013680;28;20030;-87
2022/09/20 01:00:10;;;;;;;6.13;3.10;;;;;;;13.44;79.13;102175.41;5013863;28;20026;-87
2022/09/20 01:02:40;;;;;;;7.72;3.88;;;;;;;13.45;79.22;102178.09;5013972;28;20068;-87
2022/09/20 01:05:08;;;;;;;13.60;4.38;;;;;;;13.41;78.96;102173.59;5013615;28;20529;-88
2022/09/20 01:07:33;;;;;;;10.65;4.18;;;;;;;13.32;78.68;102168.09;4996194;28;20042;-87
2022/09/20 01:09:59;;;;;;;7.43;3.80;;;;;;;13.38;78.62;102172.63;4979942;28;20129;-87
2022/09/20 01:12:31;;;;;;;9.70;3.97;;;;;;;13.33;78.88;102163.69;5013510;28;20417;-87
2022/09/20 01:14:59;;;;;;;8.20;4.05;;;;;;;13.39;78.61;102172.66;4996450;28;20034;-87
2022/09/20 01:17:28;;;;;;;10.23;4.10;;;;;;;13.32;78.38;102159.22;5013452;28;20030;-88
2022/09/20 01:20:07;;;;;;;11.13;4.07;;;;;;;13.40;78.39;102177.09;4996070;28;20480;-87
2022/09/20 01:22:44;;;;;;;8.85;3.83;;;;;;;13.37;78.40;102174.41;4996401;28;20026;-88
2022/09/20 01:25:32;;;;;;;7.30;3.70;;;;;;;13.39;78.55;102175.31;5013889;28;20042;-87
2022/09/20 01:27:58;;;;;;;13.77;4.30;;;;;;;13.36;78.53;102161.06;4987589;28;20049;-88
2022/09/20 01:30:33;;;;;;;7.18;4.00;;;;;;;13.33;78.76;102171.66;4984015;28;20034;-88
2022/09/20 01:33:20;;;;;;;9.38;3.90;;;;;;;13.33;78.66;102169.00;5000051;28;20076;-87
2022/09/20 01:35:48;;;;;;;9.48;3.72;;;;;;;13.31;78.28;102168.94;5017174;28;20061;-88
2022/09/20 01:38:42;;;;;;;8.90;3.95;;;;;;;13.32;78.57;102172.50;5000126;28;20040;-88
2022/09/20 01:41:20;;;;;;;10.52;3.85;;;;;;;13.22;78.96;102168.72;4999907;28;20080;-88
2022/09/20 01:43:51;;;;;;;9.07;3.75;;;;;;;13.29;78.81;102170.69;5017040;28;20036;-88
2022/09/20 01:46:32;;;;;;;9.48;4.05;;;;;;;13.28;78.72;102160.94;4999124;28;20030;-88
2022/09/20 01:49:37;;;;;;;9.27;4.07;;;;;;;13.35;78.44;102167.25;5016881;28;20034;-88
2022/09/20 01:52:20;;;;;;;6.43;3.70;;;;;;;13.31;78.88;102168.06;5015093;28;20041;-87
2022/09/20 01:55:06;;;;;;;14.15;4.40;;;;;;;13.34;78.67;102170.78;5016490;28;20079;-87
2022/09/20 01:57:40;;;;;;;9.73;4.10;;;;;;;13.36;78.56;102177.00;4998382;28;20041;-87
2022/09/20 02:00:41;;;;;;;11.05;3.80;;;;;;;13.35;78.40;102170.78;5016091;28;20080;-87
2022/09/20 02:03:43;;;;;;;10.75;3.90;;;;;;;13.44;78.16;102178.06;4955703;28;20481;-87
2022/09/20 02:06:38;;;;;;;7.53;3.60;;;;;;;13.41;77.88;102176.25;4965238;28;20386;-87
2022/09/20 02:09:40;;;;;;;8.98;3.75;;;;;;;13.39;78.03;102175.31;5016190;28;20105;-88
2022/09/20 02:12:18;;;;;;;7.22;3.63;;;;;;;13.34;78.25;102174.31;5016148;28;20026;-87
2022/09/20 02:15:05;;;;;;;7.15;3.50;;;;;;;13.34;78.21;102171.66;5016082;28;20022;-88
2022/09/20 02:17:39;;;;;;;9.85;3.78;;;;;;;13.34;78.45;102166.34;5016253;28;20036;-87
2022/09/20 02:20:04;;;;;;;10.02;3.80;;;;;;;13.32;78.35;102167.19;5015765;28;20030;-88
2022/09/20 02:22:47;;;;;;;10.68;3.60;;;;;;;13.30;78.42;102176.88;4998362;28;20488;-87
2022/09/20 02:25:51;;;;;;;8.82;3.30;;;;;;;13.33;78.12;102175.19;5015528;28;20058;-88
2022/09/20 02:28:54;;;;;;;12.10;3.88;;;;;;;13.39;78.11;102175.31;5016338;28;20113;-87
2022/09/20 02:31:22;;;;;;;7.57;3.45;;;;;;;13.44;77.45;102175.41;4998247;28;20465;-88
2022/09/20 02:33:47;;;;;;;8.05;3.72;;;;;;;13.40;77.50;102170.88;5015604;28;20033;-88
2022/09/20 02:36:35;;;;;;;7.68;3.58;;;;;;;13.34;77.78;102169.00;5015211;28;20029;-88
2022/09/20 02:39:12;;;;;;;10.18;3.50;;;;;;;13.33;77.87;102163.69;5015400;28;20164;-87
2022/09/20 02:42:14;;;;;;;9.10;3.55;;;;;;;13.26;78.01;102167.97;5015570;28;20033;-87
2022/09/20 02:44:56;;;;;;;11.02;3.35;;;;;;;13.22;78.09;102163.41;5015914;28;20399;-88
2022/09/20 02:47:45;;;;;;;12.45;3.80;;;;;;;13.22;78.05;102168.72;4999042;28;20038;-87
2022/09/20 02:50:45;;;;;;;10.95;3.88;;;;;;;13.20;78.13;102170.47;5015111;28;20120;-87
2022/09/20 02:53:35;;;;;;;9.00;3.42;;;;;;;13.18;78.51;102175.72;5014755;28;20045;-87
2022/09/20 02:56:06;;;;;;;9.68;4.00;;;;;;;13.17;78.44;102178.34;5015320;28;20037;-87
2022/09/20 02:59:02;;;;;;;13.48;4.00;;;;;;;13.18;78.45;102174.81;5015641;28;20189;-87
2022/09/20 03:01:46;;;;;;;11.52;3.28;;;;;;;13.15;78.15;102172.13;5014935;28;20033;-87
2022/09/20 03:04:41;;;;;;;9.45;3.35;;;;;;;13.09;78.13;102166.66;5015674;28;20091;-87
2022/09/20 03:07:25;;;;;;;8.55;3.47;;;;;;;13.10;78.30;102174.66;5015399;28;20072;-87
2022/09/20 03:10:30;;;;;;;10.25;3.20;;;;;;;13.04;78.58;102163.91;4997725;28;20459;-87
2022/09/20 03:13:20;;;;;;;8.10;3.22;;;;;;;13.01;78.91;102162.09;5015458;28;20030;-87
2022/09/20 03:16:10;;;;;;;11.70;3.45;;;;;;;12.99;78.98;102166.47;5014246;28;20037;-87
2022/09/20 03:18:59;;;;;;;7.40;3.45;;;;;;;13.02;79.03;102165.66;5015209;28;20034;-87
2022/09/20 03:21:33;;;;;;;9.55;3.70;;;;;;;13.01;79.12;102159.44;5015131;28;20101;-87
2022/09/20 03:24:07;;;;;;;9.57;3.20;;;;;;;13.00;79.18;102159.41;5014809;28;20073;-87
2022/09/20 03:27:03;;;;;;;5.80;3.33;;;;;;;13.02;79.37;102165.66;5015038;28;20042;-87
2022/09/20 03:29:47;;;;;;;10.48;3.50;;;;;;;13.01;79.36;102166.50;5015362;28;20458;-87
2022/09/20 03:32:31;;;;;;;7.53;3.17;;;;;;;12.96;79.78;102162.84;5014675;28;20056;-87
2022/09/20 03:35:06;;;;;;;9.30;3.28;;;;;;;12.91;80.17;102164.53;5014630;28;20058;-87
2022/09/20 03:37:48;;;;;;;8.20;3.42;;;;;;;12.97;79.65;102161.97;5014656;28;20045;-87
2022/09/20 03:40:46;;;;;;;8.02;3.10;;;;;;;12.99;79.80;102163.81;4997764;28;20104;-87
2022/09/20 03:43:42;;;;;;;8.65;3.25;;;;;;;13.02;79.46;102166.56;4986102;28;20099;-88
2022/09/20 03:46:17;;;;;;;6.82;3.20;;;;;;;13.03;79.77;102165.69;5014519;28;20026;-88
2022/09/20 03:49:20;;;;;;;5.32;3.03;;;;;;;13.14;79.09;102173.84;5014350;28;20026;-88
2022/09/20 03:52:08;;;;;;;7.97;2.97;;;;;;;13.17;78.78;102170.38;5014328;28;20065;-88
2022/09/20 03:55:01;;;;;;;6.13;3.22;;;;;;;13.15;78.95;102175.69;5014253;28;20030;-88
2022/09/20 03:57:56;;;;;;;10.40;3.47;;;;;;;13.15;78.92;102177.44;5014277;28;20462;-87
2022/09/20 04:00:23;;;;;;;6.85;2.97;;;;;;;13.19;78.89;102169.56;5014048;28;20431;-87
2022/09/20 04:03:26;;;;;;;8.18;3.72;;;;;;;13.20;79.06;102174.00;5014213;28;20030;-90
2022/09/20 04:06:10;;;;;;;8.30;3.63;;;;;;;13.15;79.43;102165.06;5015738;28;20072;-88
2022/09/20 04:09:02;;;;;;;8.90;3.70;;;;;;;13.12;79.64;102157.03;5015149;28;20040;-88
2022/09/20 04:11:27;;;;;;;8.45;3.80;;;;;;;13.12;79.95;102164.09;4997591;28;20390;-88
2022/09/20 04:14:08;;;;;;;9.25;3.55;;;;;;;13.12;79.90;102159.69;5014705;28;20029;-88
2022/09/20 04:17:19;;;;;;;11.32;4.10;;;;;;;13.14;79.63;102170.31;5014372;28;20037;-88
2022/09/20 04:19:53;;;;;;;10.85;3.83;;;;;;;13.13;80.17;102168.53;4998801;28;20493;-88
2022/09/20 04:22:21;;;;;;;6.32;3.17;;;;;;;13.13;80.18;102168.53;5013733;28;20436;-88
2022/09/20 04:24:59;;;;;;;9.10;3.50;;;;;;;13.09;80.16;102156.94;5014027;28;20475;-88
2022/09/20 04:27:48;;;;;;;8.30;3.83;;;;;;;13.11;80.20;102162.31;5013688;28;20037;-88
2022/09/20 04:30:19;;;;;;;6.65;3.47;;;;;;;13.15;79.93;102164.16;5013693;28;20490;-88
2022/09/20 04:33:07;;;;;;;9.88;3.58;;;;;;;13.19;79.90;102166.00;5014434;28;20030;-89
2022/09/20 04:39:00;;;;;;;6.85;3.78;;;;;;;13.19;79.89;102158.03;5014453;28;20092;-89
2022/09/20 04:41:48;;;;;;;10.48;4.10;;;;;;;13.25;79.77;102159.09;5014134;28;20033;-87
2022/09/20 04:44:33;;;;;;;8.15;3.67;;;;;;;13.18;79.85;102154.47;4996120;28;20033;-87
2022/09/20 04:47:20;;;;;;;7.82;3.65;;;;;;;13.15;79.79;102174.78;5014050;28;20057;-87
2022/09/20 04:49:54;;;;;;;8.85;3.50;;;;;;;13.11;80.03;102176.47;4995961;28;20053;-88
2022/09/20 04:52:47;;;;;;;9.43;4.00;;;;;;;13.18;79.53;102180.13;5014479;28;20389;-88
2022/09/20 04:55:40;;;;;;;8.98;3.60;;;;;;;13.19;79.45;102173.97;5013607;28;20029;-87
2022/09/20 04:58:27;;;;;;;6.38;3.33;;;;;;;13.21;79.13;102175.78;5013927;28;20049;-88
2022/09/20 05:01:06;;;;;;;6.93;3.45;;;;;;;13.20;79.08;102179.31;5015050;28;20441;-87
2022/09/20 05:03:44;;;;;;;9.07;3.33;;;;;;;13.23;79.30;102175.84;5017540;28;20071;-88
2022/09/20 05:06:28;;;;;;;9.32;3.50;;;;;;;13.17;79.43;102186.31;5017475;28;20512;-86
2022/09/20 05:09:24;;;;;;;12.18;3.95;;;;;;;13.17;79.42;102187.22;5017704;28;20068;-88
2022/09/20 05:12:18;;;;;;;7.93;3.58;;;;;;;13.17;79.36;102189.84;5017579;28;20104;-89
2022/09/20 05:15:08;;;;;;;6.75;3.10;;;;;;;13.23;78.97;102192.69;5000445;28;20395;-91
2022/09/20 05:18:08;;;;;;;11.50;3.92;;;;;;;13.22;79.02;102188.22;5017582;28;20030;-88
2022/09/20 05:20:58;;;;;;;8.98;3.70;;;;;;;13.18;79.31;102194.28;5000122;28;20053;-90
2022/09/20 05:23:54;;;;;;;10.38;3.92;;;;;;;13.23;79.10;102191.78;5000301;28;20141;-89
2022/09/20 05:26:43;;;;;;;10.93;3.40;;;;;;;13.15;79.28;102204.88;5017409;28;20371;-90
2022/09/20 05:29:19;;;;;;;8.55;3.78;;;;;;;13.12;78.93;102201.25;5016352;28;20030;-89
2022/09/20 05:32:20;;;;;;;7.47;3.90;;;;;;;13.05;79.33;102197.53;5017301;28;20121;-90
2022/09/20 05:35:10;;;;;;;7.32;3.53;;;;;;;13.09;79.22;102206.47;5006042;28;20065;-87
2022/09/20 05:37:47;;;;;;;8.05;3.47;;;;;;;13.10;79.24;102211.81;4999003;28;20068;-88
2022/09/20 05:40:28;;;;;;;7.45;3.55;;;;;;;13.10;79.44;102213.56;5016815;28;20026;-87
2022/09/20 05:43:25;;;;;;;11.68;3.65;;;;;;;13.13;79.24;102208.34;5016803;28;20045;-87
2022/09/20 05:45:56;;;;;;;7.85;3.63;;;;;;;13.12;79.37;102214.53;5016935;28;20041;-87
2022/09/20 05:48:43;;;;;;;6.82;3.88;;;;;;;13.16;79.46;102216.38;4999123;28;20033;-87
2022/09/20 05:51:19;;;;;;;10.70;4.18;;;;;;;13.12;79.94;102223.38;4999242;28;20371;-87
2022/09/20 05:53:59;;;;;;;8.30;4.03;;;;;;;13.10;79.88;102216.22;5016693;28;20108;-87
2022/09/20 05:56:54;;;;;;;7.82;4.05;;;;;;;13.18;80.19;102228.81;5016777;28;20030;-87
2022/09/20 05:59:28;;;;;;;11.25;4.30;;;;;;;13.21;80.59;102230.63;4998887;28;20041;-87
2022/09/20 06:02:17;;;;;;;8.60;4.03;;;;;;;13.30;80.57;102220.25;5016415;28;20486;-87
2022/09/20 06:04:59;;;;;;;8.55;4.00;;;;;;;13.43;80.47;102224.06;5016307;28;20038;-87
2022/09/20 06:07:59;;;;;;;8.68;4.07;;;;;;;13.60;80.06;102235.03;5016509;28;20029;-87
2022/09/20 06:10:30;;;;;;;11.82;4.00;;;;;;;13.63;79.60;102236.00;5016318;28;20026;-87
2022/09/20 06:13:11;;;;;;;7.47;4.03;;;;;;;13.59;79.59;102243.88;5015281;28;20028;-87
2022/09/20 06:15:58;;;;;;;10.65;3.85;;;;;;;13.55;79.70;102242.03;4998894;28;20030;-87
2022/09/20 06:18:42;;;;;;;12.73;3.80;;;;;;;13.50;79.97;102236.63;5016804;28;20060;-87
2022/09/20 06:21:26;;;;;;;8.15;3.78;;;;;;;13.52;79.63;102245.50;5016076;28;20030;-87
2022/09/20 06:23:57;;;;;;;6.57;3.70;;;;;;;13.50;79.79;102244.59;4998141;28;20037;-87
2022/09/20 06:26:26;;;;;;;7.85;4.10;;;;;;;13.52;79.94;102245.50;5016799;28;20030;-87
2022/09/20 06:28:59;;;;;;;8.43;4.00;;;;;;;13.51;80.04;102241.06;5015554;28;20371;-87
2022/09/20 06:31:25;;;;;;;9.88;4.00;;;;;;;13.48;79.59;102246.28;5016154;28;20069;-87
2022/09/20 06:34:04;;;;;;;5.15;3.45;;;;;;;13.48;80.21;102239.22;5015523;28;20034;-87
2022/09/20 06:42:23;;;;;;;6.57;3.50;;;;;;;13.49;79.45;102245.47;5017113;28;20175;-88
2022/09/20 06:44:48;;;;;;;7.32;3.40;;;;;;;13.51;79.39;102254.34;5015762;28;20068;-87
2022/09/20 06:47:14;;;;;;;7.25;3.60;;;;;;;13.50;79.38;102248.13;5015511;28;20454;-87
2022/09/20 06:49:41;;;;;;;5.97;3.55;;;;;;;13.48;79.47;102248.94;5016042;28;20037;-87
2022/09/20 06:52:18;;;;;;;6.20;3.45;;;;;;;13.53;80.10;102245.56;5015678;28;20084;-86
2022/09/20 06:54:45;;;;;;;9.90;4.00;;;;;;;13.54;80.47;102246.44;4997841;28;20137;-87
2022/09/20 06:57:14;;;;;;;6.85;3.67;;;;;;;13.58;79.69;102245.66;4998013;28;20484;-86
2022/09/20 06:59:40;;;;;;;9.40;3.83;;;;;;;13.61;79.74;102253.66;5015298;28;20042;-86
2022/09/20 07:02:07;;;;;;;9.40;3.95;;;;;;;13.60;79.84;102248.31;4997759;28;20088;-86
2022/09/20 07:04:33;;;;;;;5.38;3.63;;;;;;;13.65;79.73;102246.66;4997576;28;20033;-86
2022/09/20 07:07:03;;;;;;;9.38;3.80;;;;;;;13.60;79.08;102246.56;4997606;28;20429;-86
2022/09/20 07:09:28;;;;;;;7.53;3.88;;;;;;;13.59;79.73;102242.13;5015616;28;20072;-86
2022/09/20 07:11:56;;;;;;;8.77;4.13;;;;;;;13.62;79.82;102249.22;5015013;28;20470;-86
2022/09/20 07:14:22;;;;;;;6.45;3.63;;;;;;;13.67;80.38;102236.97;4997731;28;20092;-86
2022/09/20 07:16:48;;;;;;;5.47;3.90;;;;;;;13.69;80.13;102246.75;4997353;28;20475;-87
2022/09/20 07:19:13;;;;;;;9.05;3.90;;;;;;;13.77;79.83;102247.78;4981780;28;20038;-86
2022/09/20 07:21:39;;;;;;;7.40;3.72;;;;;;;13.86;79.65;102248.84;4997201;28;20408;-86
2022/09/20 07:24:04;;;;;;;7.53;3.47;;;;;;;13.95;79.53;102247.25;4996756;28;20538;-86
2022/09/20 07:26:30;;;;;;;10.60;3.88;;;;;;;14.08;79.03;102253.69;4998078;28;20042;-86
2022/09/20 07:28:58;;;;;;;9.45;3.70;;;;;;;14.18;78.70;102242.41;4998198;28;20108;-86
2022/09/20 07:31:25;;;;;;;8.23;3.70;;;;;;;14.29;78.83;102248.78;5013479;28;20091;-86
2022/09/20 07:33:50;;;;;;;7.60;4.00;;;;;;;14.48;78.50;102247.41;5014290;28;20133;-86
2022/09/20 07:36:16;;;;;;;6.97;3.53;;;;;;;14.58;77.30;102251.09;5014860;28;20029;-87
2022/09/20 07:38:47;;;;;;;8.43;3.83;;;;;;;14.73;77.36;102254.03;5014572;28;20034;-86
2022/09/20 07:41:12;;;;;;;6.60;3.55;;;;;;;14.85;76.09;102258.63;5015126;28;20117;-86
2022/09/20 07:43:39;;;;;;;7.15;3.67;;;;;;;15.03;75.55;102266.91;4997637;28;20053;-86
2022/09/20 07:46:05;;;;;;;7.10;3.20;;;;;;;15.38;75.22;102265.63;5014541;28;20033;-86
2022/09/20 07:48:35;;;;;;;8.18;3.40;;;;;;;15.78;73.75;102273.28;4997131;28;20034;-86
2022/09/20 07:51:06;;;;;;;8.23;3.47;;;;;;;16.12;73.66;102271.00;4997674;28;20053;-85
2022/09/20 07:53:32;;;;;;;6.43;3.40;;;;;;;16.81;72.00;102281.47;5014938;28;20034;-86
2022/09/20 07:55:59;;;;;;;7.90;3.50;;;;;;;17.18;68.64;102274.63;4996582;28;20501;-85
2022/09/20 07:58:26;;;;;;;10.15;3.17;;;;;;;17.53;67.37;102277.47;4997168;28;20052;-85
2022/09/20 08:01:00;;;;;;;7.28;3.20;;;;;;;17.53;66.67;102273.03;5014434;28;20034;-85
2022/09/20 08:03:27;;;;;;;7.78;3.28;;;;;;;17.88;65.66;102274.09;5014327;28;20105;-85
2022/09/20 08:05:59;;;;;;;7.70;3.40;;;;;;;18.27;64.08;102281.31;4997040;28;20034;-85
2022/09/20 08:08:24;;;;;;;8.73;2.70;;;;;;;18.59;61.46;102269.78;5014339;28;20034;-85
2022/09/20 08:10:49;;;;;;;6.30;2.85;;;;;;;18.85;61.58;102275.16;5013913;28;20369;-86
2022/09/20 08:13:15;;;;;;;8.77;2.80;;;;;;;19.01;60.58;102291.22;4980429;28;20033;-85
2022/09/20 08:15:41;;;;;;;7.80;2.70;;;;;;;19.33;59.83;102275.97;4996317;28;20379;-85
2022/09/20 08:18:07;;;;;;;5.07;2.88;;;;;;;19.41;59.57;102275.06;5013799;28;20033;-84
2022/09/20 08:20:37;;;;;;;5.90;2.80;;;;;;;19.57;57.97;102278.59;5014365;28;20478;-85
2022/09/20 08:23:04;;;;;;;7.65;2.72;;;;;;;19.64;57.23;102283.03;4996545;28;20038;-85
2022/09/20 08:25:30;;;;;;;8.38;2.83;;;;;;;19.86;57.12;102285.63;4996353;28;20070;-85
2022/09/20 08:27:56;;;;;;;5.95;2.53;;;;;;;19.83;56.69;102283.88;5014464;28;20025;-85
2022/09/20 08:30:22;;;;;;;7.35;2.78;;;;;;;20.00;55.95;102278.44;4980197;28;20041;-85
2022/09/20 08:32:48;;;;;;;6.57;2.80;;;;;;;19.83;54.09;102282.94;4980836;28;20030;-85
2022/09/20 08:35:14;;;;;;;8.73;2.80;;;;;;;19.90;54.96;102274.88;5014560;28;20037;-84
2022/09/20 08:37:42;;;;;;;8.45;2.90;;;;;;;19.94;54.96;102275.75;5017952;28;20038;-84
2022/09/20 08:40:14;;;;;;;6.85;2.50;;;;;;;20.10;54.57;102281.94;5016588;28;20030;-84
2022/09/20 08:42:43;;;;;;;8.35;2.38;;;;;;;20.29;52.82;102282.72;5018516;28;20037;-84
2022/09/20 08:45:19;;;;;;;8.65;2.30;;;;;;;20.61;52.94;102296.84;5000720;28;20538;-85
2022/09/20 08:47:57;;;;;;;8.75;2.40;;;;;;;20.86;52.67;102293.97;5018135;28;20033;-85
2022/09/20 08:50:23;;;;;;;5.80;2.38;;;;;;;21.18;51.03;102288.25;5000429;28;20025;-86
2022/09/20 08:52:56;;;;;;;7.55;2.50;;;;;;;21.42;50.97;102279.97;5018529;28;20078;-85
2022/09/20 08:55:26;;;;;;;8.10;2.60;;;;;;;21.65;49.12;102301.22;5016684;28;20022;-85
2022/09/20 08:57:55;;;;;;;6.53;2.60;;;;;;;21.68;49.44;102293.13;5017661;28;20545;-85
2022/09/20 09:00:28;;;;;;;8.07;2.40;;;;;;;22.06;47.90;102296.22;5000012;28;20087;-85
2022/09/20 09:02:56;;;;;;;5.13;2.20;;;;;;;22.36;47.04;102289.53;5018082;28;20030;-84
2022/09/20 09:05:36;;;;;;;6.72;2.10;;;;;;;22.49;45.51;102300.09;4999827;28;20084;-84
2022/09/20 09:08:25;;;;;;;8.10;2.13;;;;;;;22.70;46.63;102296.16;5017779;28;20034;-85
2022/09/20 09:10:58;;;;;;;8.25;2.30;;;;;;;22.72;45.05;102293.44;5017667;28;20036;-85
2022/09/20 09:13:33;;;;;;;9.57;2.22;;;;;;;22.61;46.10;102292.72;5017205;28;20030;-85
2022/09/20 09:16:05;;;;;;;6.72;2.10;;;;;;;22.48;43.96;102292.94;5000435;28;20034;-85
2022/09/20 09:18:34;;;;;;;5.85;2.13;;;;;;;22.24;46.08;102302.25;5017500;28;20418;-85
2022/09/20 09:21:02;;;;;;;8.43;2.10;;;;;;;21.70;45.49;102293.97;5017457;28;20040;-85
2022/09/20 09:23:34;;;;;;;7.63;1.90;;;;;;;21.59;45.45;102292.34;5000102;28;20041;-86
2022/09/20 09:26:04;;;;;;;7.95;2.00;;;;;;;21.39;47.33;102284.50;5000969;28;20050;-86
2022/09/20 09:28:35;;;;;;;8.50;2.08;;;;;;;21.15;46.34;102294.56;5017075;28;20042;-86
2022/09/20 09:31:24;;;;;;;5.45;1.85;;;;;;;20.87;48.26;102298.41;4999234;28;20042;-86
2022/09/20 09:33:50;;;;;;;11.57;2.10;;;;;;;20.46;47.72;102295.09;5016955;28;20528;-86
2022/09/20 09:36:22;;;;;;;6.38;2.00;;;;;;;20.23;47.38;102297.06;5016642;28;20120;-85
2022/09/20 09:38:48;;;;;;;6.43;1.90;;;;;;;20.01;47.65;102296.31;5017750;28;20432;-86
2022/09/20 09:41:16;;;;;;;6.97;2.13;;;;;;;19.90;48.31;102296.34;5016734;28;20069;-86
2022/09/20 09:43:42;;;;;;;6.07;2.10;;;;;;;19.69;48.15;102304.47;5016712;28;20541;-85
2022/09/20 09:46:22;;;;;;;8.95;1.88;;;;;;;19.62;49.53;102302.75;5016204;28;20113;-85
2022/09/20 09:49:03;;;;;;;7.25;2.08;;;;;;;19.40;51.40;102302.78;5016617;28;20037;-85
2022/09/20 09:51:31;;;;;;;7.35;1.90;;;;;;;19.41;50.42;102307.22;5016677;28;20445;-87
2022/09/20 09:53:56;;;;;;;5.20;1.85;;;;;;;19.17;50.67;102302.78;5016477;28;20029;-85
2022/09/20 09:56:47;;;;;;;7.85;1.90;;;;;;;19.11;51.42;102301.94;5017226;28;20092;-85
2022/09/20 09:59:39;;;;;;;5.00;1.80;;;;;;;19.09;51.67;102303.69;5016452;28;20021;-85
2022/09/20 10:02:35;;;;;;;7.30;1.80;;;;;;;19.00;51.96;102308.16;5016749;28;20034;-86
2022/09/20 10:05:27;;;;;;;7.97;1.85;;;;;;;18.97;52.23;102310.88;5016356;28;20268;-86
2022/09/20 10:08:13;;;;;;;7.60;1.90;;;;;;;18.83;51.87;102309.97;5009600;28;20046;-85
2022/09/20 10:11:01;;;;;;;9.18;2.40;;;;;;;18.58;52.21;102306.34;5016694;28;20471;-85
2022/09/20 10:14:05;;;;;;;10.10;2.17;;;;;;;18.46;52.92;102307.25;5016183;28;20041;-85
2022/09/20 10:16:45;;;;;;;11.48;2.17;;;;;;;18.36;53.49;102317.91;5016234;28;20025;-87
2022/09/20 10:19:44;;;;;;;10.40;2.10;;;;;;;18.18;53.51;102311.63;5015772;28;20081;-85
2022/09/20 10:22:40;;;;;;;7.85;1.88;;;;;;;18.17;53.48;102314.31;4999007;28;20034;-85
2022/09/20 10:25:16;;;;;;;12.43;2.13;;;;;;;18.04;54.26;102310.72;4998407;28;20050;-85
2022/09/20 10:28:16;;;;;;;6.43;1.80;;;;;;;18.10;54.52;102308.03;4998623;28;20410;-85
2022/09/20 10:31:00;;;;;;;9.13;2.28;;;;;;;18.11;54.39;102307.13;5015958;28;20068;-85
2022/09/20 10:33:36;;;;;;;9.55;2.15;;;;;;;18.07;54.44;102307.13;4998302;28;20037;-85
2022/09/20 10:36:12;;;;;;;7.93;2.00;;;;;;;18.33;54.37;102312.53;4998471;28;20466;-85
2022/09/20 10:38:53;;;;;;;8.65;2.30;;;;;;;18.27;55.38;102308.09;5015772;28;20034;-85
2022/09/20 10:44:18;;;;;;;6.50;2.28;;;;;;;18.61;54.40;102308.16;5015673;28;20080;-85
2022/09/20 10:47:14;;;;;;;8.60;2.00;;;;;;;18.78;53.47;102303.72;5015550;28;20033;-85
2022/09/20 10:49:46;;;;;;;8.40;2.10;;;;;;;18.91;51.91;102308.19;5015591;28;20029;-85
2022/09/20 10:52:33;;;;;;;7.13;1.90;;;;;;;19.23;51.80;102308.16;4998577;28;20064;-82
2022/09/20 10:55:05;;;;;;;6.72;1.92;;;;;;;19.41;51.77;102306.34;4999814;28;20062;-85
2022/09/20 10:57:39;;;;;;;7.20;2.25;;;;;;;19.60;50.84;102307.16;4998279;28;20409;-85
2022/09/20 11:00:18;;;;;;;10.35;2.10;;;;;;;19.92;50.47;102297.25;5015656;28;20120;-86
2022/09/20 11:03:15;;;;;;;6.95;1.80;;;;;;;20.05;50.09;102305.25;5014933;28;20458;-85
2022/09/20 11:06:00;;;;;;;6.85;2.00;;;;;;;19.75;49.52;102308.03;5015827;28;20033;-86
2022/09/20 11:08:32;;;;;;;8.10;1.88;;;;;;;19.34;50.34;102310.81;4998030;28;20390;-85
2022/09/20 11:11:05;;;;;;;8.13;2.08;;;;;;;19.19;50.63;102308.16;4997479;28;20022;-85
2022/09/20 11:13:44;;;;;;;4.78;1.80;;;;;;;19.08;50.26;102313.53;5015162;28;20030;-85
2022/09/20 11:16:22;;;;;;;6.10;1.88;;;;;;;19.49;50.52;102318.81;4997719;28;20044;-86
2022/09/20 11:18:53;;;;;;;6.72;2.20;;;;;;;20.18;48.44;102318.56;5015741;28;20026;-86
2022/09/20 11:21:54;;;;;;;8.77;1.83;;;;;;;20.67;48.00;102320.06;5015059;28;20053;-86
2022/09/20 11:24:37;;;;;;;4.82;1.70;;;;;;;20.71;47.44;102320.03;4984645;28;20073;-85
2022/09/20 11:27:21;;;;;;;5.80;1.80;;;;;;;20.45;46.68;102324.66;4998061;28;20429;-86
2022/09/20 11:30:00;;;;;;;5.53;1.85;;;;;;;20.31;46.92;102322.06;5015190;28;20475;-86
2022/09/20 11:32:35;;;;;;;7.53;1.73;;;;;;;19.98;47.46;102315.09;5015253;28;20462;-85
2022/09/20 11:35:03;;;;;;;6.72;1.60;;;;;;;19.98;47.12;102324.03;4996859;28;20034;-85
2022/09/20 11:37:35;;;;;;;8.63;1.80;;;;;;;19.86;47.42;102326.75;5015203;28;20096;-85
2022/09/20 11:40:11;;;;;;;7.88;1.85;;;;;;;19.89;48.32;102337.50;5014702;28;20034;-85
2022/09/20 11:42:40;;;;;;;5.90;2.00;;;;;;;19.94;47.60;102335.69;5014641;28;20478;-85
2022/09/20 11:45:06;;;;;;;9.63;1.75;;;;;;;19.81;47.64;102339.31;4980548;28;20130;-85
2022/09/20 11:47:43;;;;;;;6.57;1.60;;;;;;;19.71;48.37;102341.13;4997244;28;20117;-85
2022/09/20 11:50:31;;;;;;;7.45;1.65;;;;;;;19.56;48.18;102338.44;5014771;28;20477;-85
2022/09/20 11:52:57;;;;;;;8.27;1.98;;;;;;;19.43;47.87;102342.06;5014586;28;20076;-85
2022/09/20 11:55:41;;;;;;;5.05;1.60;;;;;;;19.24;48.61;102333.16;4997258;28;20026;-85
2022/09/20 11:58:21;;;;;;;5.15;1.67;;;;;;;19.26;49.23;102340.28;4997219;28;20033;-85
2022/09/20 12:00:50;;;;;;;7.93;1.73;;;;;;;19.13;50.11;102330.47;5014127;28;20060;-85
2022/09/20 12:03:40;;;;;;;3.45;1.45;;;;;;;19.19;50.49;102337.66;5014230;28;20470;-85
2022/09/20 12:06:26;;;;;;;6.88;1.90;;;;;;;19.08;50.37;102345.69;5007814;28;20080;-84
2022/09/20 12:08:52;;;;;;;8.43;1.70;;;;;;;18.95;50.86;102342.13;4996817;28;20084;-85
2022/09/20 12:11:37;;;;;;;5.32;1.60;;;;;;;18.68;51.67;102342.06;5014206;28;20474;-85
2022/09/20 12:14:32;;;;;;;7.82;1.48;;;;;;;18.54;51.27;102352.75;4996630;28;20040;-85
2022/09/20 12:16:58;;;;;;;5.45;1.75;;;;;;;18.26;51.29;102338.41;5014389;28;20060;-85
2022/09/20 12:19:31;;;;;;;5.10;1.40;;;;;;;18.21;52.24;102346.44;4996741;28;20429;-85
2022/09/20 12:21:59;;;;;;;5.88;1.77;;;;;;;18.22;53.07;102341.97;5014235;28;20501;-85
2022/09/20 12:24:32;;;;;;;4.22;1.58;;;;;;;18.27;52.03;102348.22;5013480;28;20050;-85